Time;durP1;ratioP1;P1;durP2;ratioP2;P2;SDS_P1;SDS_P2;PMS_P1;PMS_P2;Temp;Humidity;BMP_temperature;BMP_pressure;BME280_temperature;BME280_humidity;BME280_pressure;Samples;Min_cycle;Max_cycle;Signal;HPM_P1;HPM_P2
2020/12/09 00:00:10;;;;;;;47.77;25.63;;;;;;;-5.72;82.49;92997.02;1763782;80;21257;-80
2020/12/09 00:02:39;;;;;;;47.50;25.20;;;;;;;-5.76;82.67;93001.36;1769474;79;21073;-77
2020/12/09 00:05:10;;;;;;;46.90;26.50;;;;;;;-5.73;82.91;92999.98;1783648;77;21064;-78
2020/12/09 00:07:38;;;;;;;67.13;37.83;;;;;;;-5.69;82.99;93005.68;1845348;77;21252;-74
2020/12/09 00:10:07;;;;;;;59.03;32.13;;;;;;;-5.67;82.86;93000.09;1822246;76;21190;-78
2020/12/09 00:12:35;;;;;;;61.97;34.50;;;;;;;-5.66;82.96;92999.00;1829500;78;21083;-75
2020/12/09 00:15:08;;;;;;;70.27;37.03;;;;;;;-5.64;82.80;93002.14;1802931;78;21113;-76
2020/12/09 00:17:36;;;;;;;94.43;51.10;;;;;;;-5.64;82.77;93004.25;1760570;80;21060;-80
2020/12/09 00:20:05;;;;;;;96.30;49.40;;;;;;;-5.62;82.99;93009.23;1770976;78;22448;-78
2020/12/09 00:22:37;;;;;;;72.63;38.67;;;;;;;-5.61;83.08;93012.89;1855361;77;21112;-76
2020/12/09 00:25:05;;;;;;;66.40;36.63;;;;;;;-5.63;82.88;93014.30;1812728;77;21129;-75
2020/12/09 00:27:34;;;;;;;58.23;31.47;;;;;;;-5.70;82.45;93017.92;1779137;79;21101;-78
2020/12/09 00:30:07;;;;;;;61.57;30.93;;;;;;;-5.77;82.17;93022.86;1828048;77;21536;-76
2020/12/09 00:32:35;;;;;;;67.97;37.70;;;;;;;-5.89;81.85;93024.19;1804158;79;22043;-76
2020/12/09 00:35:06;;;;;;;67.47;37.50;;;;;;;-6.02;81.91;93030.35;1793174;78;21130;-76
2020/12/09 00:37:35;;;;;;;64.53;33.03;;;;;;;-6.14;82.17;93016.88;1812807;79;21578;-78
2020/12/09 00:40:05;;;;;;;75.20;37.10;;;;;;;-6.23;82.32;93022.67;1812545;79;21535;-75
2020/12/09 00:42:34;;;;;;;103.53;49.20;;;;;;;-6.32;82.59;93023.91;1804349;79;21124;-75
2020/12/09 00:45:04;;;;;;;112.80;52.10;;;;;;;-6.39;82.90;93030.95;1786945;79;21199;-79
2020/12/09 00:47:33;;;;;;;105.20;49.10;;;;;;;-6.37;83.43;93030.64;1822031;78;21191;-74
2020/12/09 00:52:43;;;;;;;109.50;50.87;;;;;;;-6.31;83.72;93028.68;1766147;81;21132;-76
2020/12/09 00:55:13;;;;;;;112.63;48.80;;;;;;;-6.24;83.75;93030.34;1820318;78;21570;-74
2020/12/09 00:57:43;;;;;;;124.53;51.40;;;;;;;-6.26;83.83;93028.01;1771081;77;22162;-76
2020/12/09 01:00:13;;;;;;;130.17;54.80;;;;;;;-6.24;84.12;93024.53;1792825;77;21561;-76
2020/12/09 01:02:45;;;;;;;115.80;52.13;;;;;;;-6.28;84.05;93029.38;1845827;77;21039;-78
2020/12/09 01:05:14;;;;;;;111.10;47.57;;;;;;;-6.28;84.47;93019.60;1845223;77;21119;-78
2020/12/09 01:07:43;;;;;;;93.27;44.37;;;;;;;-6.24;84.33;93021.08;1783092;80;21131;-78
2020/12/09 01:10:11;;;;;;;62.23;31.00;;;;;;;-6.31;84.02;93016.77;1800894;78;22144;-77
2020/12/09 01:12:41;;;;;;;67.73;35.27;;;;;;;-6.47;83.93;93011.02;1788682;77;21083;-76
2020/12/09 01:15:09;;;;;;;62.87;33.20;;;;;;;-6.64;84.01;93012.99;1762410;80;21045;-79
2020/12/09 01:17:37;;;;;;;69.23;35.37;;;;;;;-6.74;84.38;93011.87;1764994;81;21064;-75
2020/12/09 01:20:06;;;;;;;64.30;35.23;;;;;;;-6.78;84.83;93013.55;1697372;84;21135;-76
2020/12/09 01:22:35;;;;;;;65.97;34.83;;;;;;;-6.75;85.10;93012.42;1727009;82;21638;-79
2020/12/09 01:25:04;;;;;;;66.60;34.77;;;;;;;-6.74;85.10;93009.23;1724686;82;21560;-74
2020/12/09 01:27:32;;;;;;;66.93;34.87;;;;;;;-6.71;85.24;93008.10;1746257;80;21151;-78
2020/12/09 01:30:00;;;;;;;57.63;30.83;;;;;;;-6.64;85.17;93012.99;1755621;81;21449;-76
2020/12/09 01:32:28;;;;;;;48.67;26.37;;;;;;;-6.60;84.81;93015.28;1785302;80;21067;-78
2020/12/09 01:34:57;;;;;;;41.47;23.57;;;;;;;-6.58;84.57;93011.00;1750029;80;21658;-78
2020/12/09 01:37:25;;;;;;;49.03;25.70;;;;;;;-6.56;84.44;93008.31;1741552;82;21163;-76
2020/12/09 01:39:53;;;;;;;39.93;23.00;;;;;;;-6.53;83.99;93004.30;1729780;81;21144;-75
2020/12/09 01:42:21;;;;;;;42.47;22.63;;;;;;;-6.61;83.80;93000.50;1751798;81;21590;-78
2020/12/09 01:44:50;;;;;;;40.23;22.43;;;;;;;-6.70;83.90;92988.50;1727328;81;21108;-79
2020/12/09 01:47:18;;;;;;;41.27;22.77;;;;;;;-6.74;84.04;92995.47;1769004;81;22087;-77
2020/12/09 01:49:46;;;;;;;38.00;21.50;;;;;;;-6.71;84.36;92990.14;1747931;82;21654;-79
2020/12/09 01:52:16;;;;;;;33.43;18.77;;;;;;;-6.63;84.26;92985.45;1781161;80;21073;-80
2020/12/09 01:54:44;;;;;;;33.57;19.07;;;;;;;-6.59;83.92;92989.06;1735798;82;21117;-78
2020/12/09 01:57:14;;;;;;;28.97;16.37;;;;;;;-6.62;83.76;92992.30;1761165;79;21143;-75
2020/12/09 01:59:44;;;;;;;43.80;23.83;;;;;;;-6.67;83.92;92989.23;1795842;79;21247;-76
2020/12/09 02:02:12;;;;;;;41.87;21.77;;;;;;;-6.65;84.38;92988.41;1789128;80;21151;-76
2020/12/09 02:04:41;;;;;;;57.90;29.43;;;;;;;-6.57;84.65;92992.20;1764566;79;21150;-79
2020/12/09 02:07:09;;;;;;;47.80;24.90;;;;;;;-6.49;84.60;92992.03;1784728;79;21092;-78
2020/12/09 02:09:37;;;;;;;28.30;17.10;;;;;;;-6.43;84.48;92999.56;1785506;80;21060;-77
2020/12/09 02:12:05;;;;;;;32.90;17.60;;;;;;;-6.38;84.14;92994.15;1776676;80;21193;-77
2020/12/09 02:14:33;;;;;;;30.70;17.50;;;;;;;-6.34;83.77;92982.97;1739273;80;21457;-77
2020/12/09 02:17:01;;;;;;;30.03;17.40;;;;;;;-6.29;83.58;92990.78;1795614;80;21186;-74
2020/12/09 02:19:29;;;;;;;31.70;19.27;;;;;;;-6.26;83.25;92980.38;1744429;82;21065;-77
2020/12/09 02:22:10;;;;;;;30.33;17.23;;;;;;;-6.32;83.08;92984.21;1774747;80;21211;-76
2020/12/09 02:24:39;;;;;;;32.20;17.20;;;;;;;-6.31;83.38;92983.16;1767359;79;21688;-79
2020/12/09 02:27:07;;;;;;;31.20;18.37;;;;;;;-6.26;83.51;92984.89;1769788;79;21199;-76
2020/12/09 02:29:35;;;;;;;36.47;19.10;;;;;;;-6.18;83.28;92988.13;1746590;79;21172;-76
2020/12/09 02:32:03;;;;;;;26.87;16.63;;;;;;;-6.10;83.15;92988.72;1733958;82;21182;-78
2020/12/09 02:34:31;;;;;;;29.47;17.67;;;;;;;-6.01;83.01;92986.16;1832462;77;21159;-76
2020/12/09 02:37:00;;;;;;;26.30;15.77;;;;;;;-5.98;82.73;92988.17;1792750;77;22137;-76
2020/12/09 02:39:35;;;;;;;28.47;16.27;;;;;;;-5.99;82.75;92997.98;1817816;77;21079;-78
2020/12/09 02:42:04;;;;;;;27.20;16.20;;;;;;;-5.94;82.93;92997.07;1790538;79;21291;-77
2020/12/09 02:44:34;;;;;;;33.30;17.77;;;;;;;-5.87;82.67;92992.10;1688668;85;21163;-77
2020/12/09 02:47:02;;;;;;;31.53;17.53;;;;;;;-5.89;82.30;92999.58;1787197;80;21199;-76
2020/12/09 02:49:30;;;;;;;31.80;16.97;;;;;;;-5.94;82.37;92997.07;1790890;78;22472;-76
2020/12/09 02:51:58;;;;;;;30.63;16.70;;;;;;;-5.93;82.36;92998.11;1811034;77;21037;-78
2020/12/09 02:54:26;;;;;;;33.10;17.97;;;;;;;-5.86;82.35;92994.47;1808697;77;21060;-79
2020/12/09 02:56:54;;;;;;;31.53;18.47;;;;;;;-5.78;82.22;92996.14;1790404;80;21202;-78
2020/12/09 02:59:23;;;;;;;31.87;16.97;;;;;;;-5.73;81.97;92996.78;1789834;79;21124;-79
2020/12/09 03:01:51;;;;;;;38.17;19.83;;;;;;;-5.72;81.88;92989.06;1769924;80;21609;-74
2020/12/09 03:04:20;;;;;;;37.27;20.67;;;;;;;-5.68;81.88;92996.67;1762603;80;21490;-77
2020/12/09 03:06:48;;;;;;;34.50;18.87;;;;;;;-5.67;81.79;92996.13;1759284;80;21614;-77
2020/12/09 03:09:16;;;;;;;35.60;20.20;;;;;;;-5.67;81.95;92996.13;1787197;80;21575;-79
2020/12/09 03:11:44;;;;;;;42.00;23.87;;;;;;;-5.66;81.98;92995.81;1762228;81;21551;-76
2020/12/09 03:14:13;;;;;;;44.07;22.53;;;;;;;-5.69;82.11;92987.69;1769964;80;21623;-76
2020/12/09 03:16:42;;;;;;;47.90;24.87;;;;;;;-5.73;82.18;92986.73;1769105;81;21167;-80
2020/12/09 03:19:10;;;;;;;59.27;28.00;;;;;;;-5.79;82.23;92986.61;1776735;80;21059;-78
2020/12/09 03:21:41;;;;;;;59.77;31.30;;;;;;;-5.81;82.38;92990.13;1790061;79;21073;-76
2020/12/09 03:24:10;;;;;;;63.90;31.27;;;;;;;-5.83;82.45;92984.34;1768209;79;21056;-78
2020/12/09 03:26:38;;;;;;;68.63;35.70;;;;;;;-5.82;82.53;92988.02;1772794;78;21171;-76
2020/12/09 03:29:06;;;;;;;64.23;34.53;;;;;;;-5.82;82.56;92988.02;1813053;78;21234;-80
2020/12/09 03:31:34;;;;;;;64.37;32.30;;;;;;;-5.81;82.67;92988.25;1769855;80;21083;-78
2020/12/09 03:34:03;;;;;;;40.80;22.97;;;;;;;-5.79;82.65;92986.09;1821743;78;21562;-77
2020/12/09 03:36:31;;;;;;;34.87;20.67;;;;;;;-5.77;82.68;92998.48;1782147;79;21048;-80
2020/12/09 03:38:59;;;;;;;41.17;21.67;;;;;;;-5.74;82.30;92985.95;1810113;77;21149;-77
2020/12/09 03:41:27;;;;;;;47.60;24.50;;;;;;;-5.73;82.11;92982.22;1848286;77;21052;-75
2020/12/09 03:43:55;;;;;;;57.43;29.83;;;;;;;-5.71;82.03;92984.58;1844326;77;21112;-79
2020/12/09 03:46:23;;;;;;;60.17;30.07;;;;;;;-5.71;82.10;92983.25;1776058;79;21190;-76
2020/12/09 03:48:51;;;;;;;34.67;19.07;;;;;;;-5.63;82.09;92981.96;1747246;81;21152;-79
2020/12/09 03:51:19;;;;;;;36.37;19.37;;;;;;;-5.57;81.81;92970.67;1748879;79;21650;-75
2020/12/09 03:53:47;;;;;;;39.73;22.27;;;;;;;-5.53;81.47;92976.92;1774838;79;21656;-76
2020/12/09 03:56:16;;;;;;;43.13;23.93;;;;;;;-5.56;81.09;92975.45;1809424;79;21061;-79
2020/12/09 03:58:44;;;;;;;37.70;19.13;;;;;;;-5.63;81.32;92966.61;1834857;77;21100;-77
2020/12/09 04:01:12;;;;;;;32.80;18.53;;;;;;;-5.65;81.32;92976.17;1773350;79;21552;-76
2020/12/09 04:03:40;;;;;;;45.93;23.57;;;;;;;-5.70;81.24;92978.97;1819909;76;21472;-79
2020/12/09 04:06:08;;;;;;;54.80;28.43;;;;;;;-5.75;81.26;92979.66;1855191;77;21490;-75
2020/12/09 04:08:36;;;;;;;69.93;34.43;;;;;;;-5.81;81.36;92978.98;1810421;78;21037;-76
2020/12/09 04:11:05;;;;;;;71.63;36.60;;;;;;;-5.93;81.62;92980.13;1812731;78;21089;-79
2020/12/09 04:13:33;;;;;;;68.17;36.87;;;;;;;-5.97;82.05;92983.14;1774094;79;21132;-77
2020/12/09 04:16:01;;;;;;;77.37;39.77;;;;;;;-5.97;82.18;92981.81;1711231;83;21282;-80
2020/12/09 04:18:29;;;;;;;76.30;39.23;;;;;;;-6.00;82.23;92975.25;1698710;79;21096;-77
2020/12/09 04:20:58;;;;;;;79.00;39.63;;;;;;;-6.00;82.35;92969.95;1783821;80;21521;-79
2020/12/09 04:23:26;;;;;;;84.80;44.97;;;;;;;-6.01;82.35;92978.98;1807780;79;21602;-76
2020/12/09 04:25:54;;;;;;;83.53;44.40;;;;;;;-6.04;82.24;92979.59;1807314;79;21149;-77
2020/12/09 04:28:22;;;;;;;79.87;44.30;;;;;;;-6.08;82.29;92981.83;1771737;80;21193;-77
2020/12/09 04:30:50;;;;;;;81.03;41.27;;;;;;;-6.11;82.25;92977.91;1779558;79;21682;-79
2020/12/09 04:33:23;;;;;;;101.03;51.87;;;;;;;-6.16;82.38;92982.78;1758894;80;21081;-75
2020/12/09 04:35:51;;;;;;;79.97;41.77;;;;;;;-6.21;82.38;92986.86;1766629;81;21202;-77
2020/12/09 04:38:20;;;;;;;88.30;46.77;;;;;;;-6.28;82.32;92976.45;1723765;81;21582;-80
2020/12/09 04:40:48;;;;;;;98.47;51.83;;;;;;;-6.34;82.25;92986.39;1742459;80;21205;-77
2020/12/09 04:43:16;;;;;;;83.73;43.27;;;;;;;-6.38;82.57;92985.43;1759937;80;21064;-78
2020/12/09 04:45:45;;;;;;;79.17;41.80;;;;;;;-6.35;82.73;92982.19;1774502;79;21228;-78
2020/12/09 04:48:14;;;;;;;85.40;44.30;;;;;;;-6.29;82.80;92985.48;1729796;80;21101;-78
2020/12/09 04:51:20;;;;;;;84.93;45.17;;;;;;;-6.20;82.77;92984.47;1813976;77;21170;-77
2020/12/09 04:53:57;;;;;;;75.33;44.63;;;;;;;-6.19;82.35;92986.58;1743215;81;21199;-79
2020/12/09 04:56:37;;;;;;;57.43;31.00;;;;;;;-6.18;82.08;92974.90;1752789;80;21163;-80
2020/12/09 04:59:13;;;;;;;56.43;30.13;;;;;;;-6.17;81.85;92973.29;1773512;80;21132;-77
2020/12/09 05:02:06;;;;;;;43.20;25.50;;;;;;;-6.24;81.68;92976.90;1789343;79;21152;-77
2020/12/09 05:04:35;;;;;;;44.20;21.83;;;;;;;-6.29;81.64;92982.84;1783401;79;21104;-74
2020/12/09 05:07:09;;;;;;;40.50;23.17;;;;;;;-6.35;81.67;92979.55;1757978;80;21655;-75
2020/12/09 05:09:46;;;;;;;41.47;24.17;;;;;;;-6.39;81.70;92983.88;1806740;78;21174;-76
2020/12/09 05:12:18;;;;;;;47.40;25.47;;;;;;;-6.45;81.65;92983.73;1807402;79;21099;-76
2020/12/09 05:14:49;;;;;;;46.97;27.00;;;;;;;-6.51;81.94;92982.28;1833504;77;21060;-75
2020/12/09 05:17:19;;;;;;;52.90;27.63;;;;;;;-6.55;82.12;92985.28;1811504;78;21030;-75
2020/12/09 05:19:48;;;;;;;49.70;27.37;;;;;;;-6.56;82.19;92988.47;1815118;78;21199;-78
2020/12/09 05:22:21;;;;;;;40.30;21.17;;;;;;;-6.56;82.13;92982.41;1752967;81;21084;-75
2020/12/09 05:24:49;;;;;;;38.13;22.13;;;;;;;-6.51;82.12;92980.95;1757688;80;21050;-77
2020/12/09 05:27:17;;;;;;;43.47;24.87;;;;;;;-6.53;81.72;92976.52;1745356;80;21661;-75
2020/12/09 05:29:47;;;;;;;43.93;24.57;;;;;;;-6.62;81.69;92980.40;1829783;78;21591;-79
2020/12/09 05:32:16;;;;;;;49.67;27.67;;;;;;;-6.71;81.77;92983.52;1751621;78;21194;-79
2020/12/09 05:34:44;;;;;;;51.37;26.60;;;;;;;-6.82;81.92;92971.61;1748187;80;21129;-80
2020/12/09 05:37:13;;;;;;;42.77;23.87;;;;;;;-6.88;82.24;92966.98;1839832;77;21136;-77
2020/12/09 05:39:54;;;;;;;41.47;22.00;;;;;;;-6.89;82.53;92970.69;1818236;78;21142;-77
2020/12/09 05:42:24;;;;;;;44.43;24.63;;;;;;;-6.87;82.59;92972.50;1778600;80;21596;-74
2020/12/09 05:44:52;;;;;;;60.63;29.40;;;;;;;-6.86;82.68;92977.48;1761011;80;21262;-76
2020/12/09 05:47:21;;;;;;;83.57;43.60;;;;;;;-6.80;82.63;92977.39;1753720;81;21475;-75
2020/12/09 05:49:50;;;;;;;75.97;41.10;;;;;;;-6.76;82.61;92973.84;1753039;80;21049;-74
2020/12/09 05:52:20;;;;;;;95.07;46.20;;;;;;;-6.71;82.53;92984.84;1752160;81;21176;-78
2020/12/09 05:54:51;;;;;;;103.83;50.83;;;;;;;-6.69;82.41;92981.37;1723202;80;21076;-77
2020/12/09 05:57:24;;;;;;;87.13;44.50;;;;;;;-6.72;82.25;92983.29;1748533;82;22216;-76
2020/12/09 05:59:54;;;;;;;70.47;38.63;;;;;;;-6.76;82.01;92984.97;1755644;80;21570;-77
2020/12/09 06:02:26;;;;;;;63.67;34.37;;;;;;;-6.82;81.90;92992.21;1797099;79;21108;-78
2020/12/09 06:04:59;;;;;;;63.40;32.87;;;;;;;-6.81;81.91;92984.52;1772333;79;21124;-75
2020/12/09 06:07:29;;;;;;;68.70;36.40;;;;;;;-6.81;81.80;92987.16;1775171;78;21199;-75
2020/12/09 06:10:20;;;;;;;69.87;36.47;;;;;;;-6.79;81.81;92988.20;1820518;78;21277;-76
2020/12/09 06:12:49;;;;;;;84.33;40.23;;;;;;;-6.80;81.75;92992.71;1801857;78;21175;-79
2020/12/09 06:15:17;;;;;;;52.37;26.83;;;;;;;-6.83;81.85;92995.95;1787530;79;21055;-75
2020/12/09 06:17:45;;;;;;;45.27;24.97;;;;;;;-6.79;81.91;93004.06;1754134;80;21082;-76
2020/12/09 06:20:14;;;;;;;52.13;26.83;;;;;;;-6.74;81.75;93002.63;1791552;78;21127;-74
2020/12/09 06:22:42;;;;;;;45.83;23.57;;;;;;;-6.74;81.52;93003.95;1797893;78;21631;-76
2020/12/09 06:25:10;;;;;;;61.07;33.57;;;;;;;-6.80;81.50;93000.64;1786275;78;21537;-75
2020/12/09 06:27:38;;;;;;;71.90;34.90;;;;;;;-6.80;81.79;93002.51;1779908;80;21625;-75
2020/12/09 06:30:07;;;;;;;65.80;35.03;;;;;;;-6.75;82.09;93000.52;1822510;78;21040;-74
2020/12/09 06:32:47;;;;;;;73.17;36.40;;;;;;;-6.68;81.94;93002.77;1793907;78;21132;-77
2020/12/09 06:35:19;;;;;;;67.53;34.43;;;;;;;-6.68;82.03;92996.16;1725535;82;21673;-75
2020/12/09 06:38:09;;;;;;;66.53;31.70;;;;;;;-6.69;82.11;93002.53;1782943;79;21057;-75
2020/12/09 06:40:45;;;;;;;59.20;30.57;;;;;;;-6.73;82.19;93002.34;1803443;78;21144;-75
2020/12/09 06:43:14;;;;;;;57.20;30.23;;;;;;;-6.69;81.91;93005.95;1735505;80;21169;-79
2020/12/09 06:45:45;;;;;;;55.17;29.13;;;;;;;-6.58;81.92;93001.75;1789212;79;21147;-75
2020/12/09 06:48:14;;;;;;;58.33;29.87;;;;;;;-6.49;81.74;93013.20;1805531;79;21214;-76
2020/12/09 06:50:43;;;;;;;54.63;28.23;;;;;;;-6.40;81.65;93008.75;1779192;80;21191;-75
2020/12/09 06:53:14;;;;;;;56.03;29.67;;;;;;;-6.21;81.78;93009.90;1815057;77;21128;-77
2020/12/09 06:55:42;;;;;;;58.80;31.57;;;;;;;-5.93;81.57;93003.95;1768406;80;21177;-74
2020/12/09 06:58:29;;;;;;;58.67;30.83;;;;;;;-5.65;81.10;93003.98;1771556;80;21140;-74
2020/12/09 07:01:04;;;;;;;50.13;26.47;;;;;;;-5.53;80.12;93006.06;1714797;83;22291;-76
2020/12/09 07:03:37;;;;;;;88.53;49.33;;;;;;;-5.44;79.62;93004.80;1750517;79;21178;-77
2020/12/09 07:06:23;;;;;;;48.80;28.67;;;;;;;-5.28;79.37;93001.97;1843807;77;21553;-76
2020/12/09 07:08:51;;;;;;;44.27;24.17;;;;;;;-5.00;78.73;92997.24;1774647;77;21620;-79
2020/12/09 07:11:19;;;;;;;76.60;38.77;;;;;;;-4.71;77.76;92991.35;1788945;79;21041;-78
2020/12/09 07:13:47;;;;;;;99.17;50.60;;;;;;;-4.62;76.73;92993.26;1806137;78;22508;-77
2020/12/09 07:16:16;;;;;;;104.00;56.87;;;;;;;-4.59;76.69;92992.61;1819737;78;21092;-75
2020/12/09 07:18:44;;;;;;;98.47;50.83;;;;;;;-4.50;76.77;92991.55;1723561;83;21532;-77
2020/12/09 07:21:12;;;;;;;86.67;45.57;;;;;;;-4.28;76.48;92991.95;1738516;80;21586;-77
2020/12/09 07:23:40;;;;;;;81.63;42.20;;;;;;;-4.10;76.14;92992.70;1767579;80;21460;-77
2020/12/09 07:26:09;;;;;;;105.17;54.37;;;;;;;-3.93;76.48;92990.03;1779747;78;21196;-78
2020/12/09 07:28:38;;;;;;;102.27;55.00;;;;;;;-3.66;76.17;92983.56;1781166;78;21411;-77
2020/12/09 07:31:07;;;;;;;84.90;46.13;;;;;;;-3.36;74.96;92982.31;1739303;82;21306;-79
2020/12/09 07:33:35;;;;;;;74.83;40.53;;;;;;;-3.12;73.98;92980.95;1833331;78;21673;-77
2020/12/09 07:36:09;;;;;;;69.03;39.47;;;;;;;-2.92;73.39;92980.25;1776847;79;21648;-76
2020/12/09 07:38:44;;;;;;;68.43;38.87;;;;;;;-2.66;72.78;92976.66;1772239;78;40213;-75
2020/12/09 07:41:12;;;;;;;61.98;34.08;;;;;;;-2.45;72.31;92982.77;1792924;78;21168;-76
2020/12/09 07:43:40;;;;;;;65.67;36.70;;;;;;;-2.25;71.78;92976.68;1746937;80;21172;-76
2020/12/09 07:46:09;;;;;;;65.22;35.23;;;;;;;-2.03;70.65;92987.56;1741189;80;21087;-78
2020/12/09 07:48:37;;;;;;;69.47;39.70;;;;;;;-1.79;70.23;92979.42;1754396;80;21062;-78
2020/12/09 07:51:05;;;;;;;67.42;40.12;;;;;;;-1.51;69.10;92983.61;1753994;80;21199;-76
2020/12/09 07:53:33;;;;;;;64.85;39.33;;;;;;;-1.28;67.96;92976.78;1750769;81;21153;-76
2020/12/09 07:56:01;;;;;;;60.90;37.63;;;;;;;-1.06;66.54;92980.90;1818860;77;21156;-79
2020/12/09 07:58:30;;;;;;;71.77;44.77;;;;;;;-0.90;65.84;92983.70;1836416;77;21192;-79
2020/12/09 08:01:00;;;;;;;98.05;59.03;;;;;;;-0.80;65.92;92982.47;1821980;78;21170;-76
2020/12/09 08:03:28;;;;;;;83.62;49.93;;;;;;;-0.59;65.90;92983.13;1744755;78;21200;-77
2020/12/09 08:05:57;;;;;;;76.45;48.73;;;;;;;-0.28;65.11;92982.52;1775286;79;21179;-74
2020/12/09 08:08:26;;;;;;;73.55;43.30;;;;;;;-0.10;64.38;92977.70;1790190;78;21207;-76
2020/12/09 08:10:57;;;;;;;89.00;56.88;;;;;;;-0.05;63.74;92983.36;1754955;79;21306;-79
2020/12/09 08:13:26;;;;;;;89.32;54.58;;;;;;;-0.02;63.56;92982.13;1736900;82;21168;-77
2020/12/09 08:16:07;;;;;;;67.45;45.12;;;;;;;0.06;63.38;92981.77;1759019;81;21655;-77
2020/12/09 08:18:36;;;;;;;73.07;45.15;;;;;;;0.17;62.71;92981.50;1775462;79;21697;-78
2020/12/09 08:21:04;;;;;;;75.05;46.92;;;;;;;0.34;62.47;92980.98;1805533;78;21033;-78
2020/12/09 08:23:47;;;;;;;81.53;51.53;;;;;;;0.52;62.41;92979.56;1819487;78;21169;-79
2020/12/09 08:26:30;;;;;;;84.70;52.27;;;;;;;0.63;61.86;92983.30;1809012;79;21124;-78
2020/12/09 08:28:59;;;;;;;77.60;46.70;;;;;;;0.83;61.21;92981.52;1800528;79;22187;-79
2020/12/09 08:31:28;;;;;;;88.00;51.45;;;;;;;1.08;60.96;92985.37;1791684;79;21663;-78
2020/12/09 08:33:57;;;;;;;70.90;44.25;;;;;;;1.13;60.51;92977.86;1809863;78;21140;-80
2020/12/09 08:36:26;;;;;;;79.80;47.80;;;;;;;1.05;60.49;92972.66;1791278;78;21606;-76
2020/12/09 08:38:59;;;;;;;84.87;50.88;;;;;;;0.99;60.37;92971.38;1782785;79;21155;-78
2020/12/09 08:41:29;;;;;;;82.25;47.53;;;;;;;0.99;60.37;92971.38;1770927;80;21197;-76
2020/12/09 08:43:58;;;;;;;79.45;46.20;;;;;;;0.89;60.39;92969.98;1769490;79;21150;-78
2020/12/09 08:46:27;;;;;;;81.30;47.65;;;;;;;0.69;60.72;92965.10;1800097;79;21108;-77
2020/12/09 08:48:56;;;;;;;83.00;45.28;;;;;;;0.46;61.25;92964.33;1779671;79;21169;-80
2020/12/09 08:51:29;;;;;;;70.75;43.60;;;;;;;0.25;61.87;92965.09;1809910;78;21189;-79
2020/12/09 08:53:58;;;;;;;72.10;41.92;;;;;;;0.09;62.74;92973.07;1841141;76;21315;-78
2020/12/09 08:56:31;;;;;;;71.45;38.13;;;;;;;0.05;63.15;92966.84;1837632;75;21243;-78
2020/12/09 08:59:00;;;;;;;72.92;40.80;;;;;;;-0.02;63.72;92961.30;1757661;78;21660;-78
2020/12/09 09:01:28;;;;;;;70.65;40.33;;;;;;;0.02;64.22;92958.17;1802814;79;21178;-80
2020/12/09 09:03:59;;;;;;;69.07;41.18;;;;;;;0.16;64.08;92950.55;1780040;79;21187;-77
2020/12/09 09:06:27;;;;;;;67.42;38.13;;;;;;;0.27;63.97;92944.15;1780370;78;22043;-75
2020/12/09 09:08:55;;;;;;;61.68;36.13;;;;;;;0.24;63.67;92949.61;1750942;79;21227;-75
2020/12/09 09:11:26;;;;;;;63.30;36.45;;;;;;;0.12;64.03;92950.23;1748486;82;21142;-75
2020/12/09 09:13:54;;;;;;;71.65;37.30;;;;;;;-0.04;64.36;92944.81;1831185;77;21182;-77
2020/12/09 09:16:22;;;;;;;74.03;39.65;;;;;;;-0.21;64.84;92941.10;1826756;77;21100;-79
2020/12/09 09:18:50;;;;;;;60.00;33.25;;;;;;;-0.31;65.59;92952.47;1802103;78;21648;-77
2020/12/09 09:21:19;;;;;;;64.12;34.95;;;;;;;-0.37;65.96;92949.05;1800960;79;21180;-78
2020/12/09 09:23:47;;;;;;;60.12;34.05;;;;;;;-0.44;66.35;92946.94;1797027;77;21199;-76
2020/12/09 09:26:17;;;;;;;61.92;31.80;;;;;;;-0.50;66.59;92954.95;1832252;77;21416;-76
2020/12/09 09:28:45;;;;;;;69.17;35.68;;;;;;;-0.53;66.96;92947.61;1741695;82;21195;-77
2020/12/09 09:31:13;;;;;;;68.33;34.73;;;;;;;-0.53;67.24;92952.42;1806364;78;21663;-77
2020/12/09 09:33:41;;;;;;;61.33;31.87;;;;;;;-0.54;67.14;92945.50;1810340;79;21170;-75
2020/12/09 09:36:10;;;;;;;68.12;34.65;;;;;;;-0.57;67.25;92946.73;1804996;78;21363;-77
2020/12/09 09:38:38;;;;;;;63.33;33.28;;;;;;;-0.59;67.62;92939.62;1801928;79;21151;-79
2020/12/09 09:41:06;;;;;;;62.83;32.13;;;;;;;-0.61;67.85;92932.50;1783142;78;21154;-78
2020/12/09 09:43:34;;;;;;;67.55;34.65;;;;;;;-0.63;68.17;92930.73;1787104;79;21199;-79
2020/12/09 09:46:03;;;;;;;62.10;32.35;;;;;;;-0.59;67.99;92928.95;1780489;78;21196;-79
2020/12/09 09:48:31;;;;;;;64.15;31.80;;;;;;;-0.59;67.81;92924.94;1780023;79;21209;-79
2020/12/09 09:50:59;;;;;;;75.30;39.88;;;;;;;-0.60;67.78;92924.17;1765809;79;21265;-74
2020/12/09 09:53:47;;;;;;;64.85;33.67;;;;;;;-0.61;67.78;92925.26;1723266;81;21340;-76
2020/12/09 09:56:16;;;;;;;67.40;33.55;;;;;;;-0.58;67.98;92917.91;1815563;78;21554;-79
2020/12/09 09:58:45;;;;;;;56.85;31.33;;;;;;;-0.45;67.65;92912.54;1815575;79;21209;-79
2020/12/09 10:01:15;;;;;;;66.60;36.55;;;;;;;-0.34;67.63;92909.08;1855364;77;21067;-77
2020/12/09 10:03:43;;;;;;;57.53;30.32;;;;;;;-0.14;66.91;92907.90;1802521;78;21586;-78
2020/12/09 10:06:11;;;;;;;63.45;33.05;;;;;;;0.06;66.38;92912.81;1824218;77;21188;-78
2020/12/09 10:08:39;;;;;;;61.98;32.78;;;;;;;0.13;66.02;92913.02;1805730;79;22485;-76
2020/12/09 10:11:08;;;;;;;62.15;32.13;;;;;;;0.11;66.05;92909.33;1728688;83;21178;-74
2020/12/09 10:13:37;;;;;;;67.17;33.50;;;;;;;0.06;65.95;92904.80;1848642;77;21064;-77
2020/12/09 10:16:05;;;;;;;58.25;31.07;;;;;;;-0.08;66.19;92899.84;1851689;76;21654;-78
2020/12/09 10:18:34;;;;;;;65.67;34.48;;;;;;;-0.19;66.26;92892.86;1801920;78;21761;-78
2020/12/09 10:21:02;;;;;;;69.65;33.20;;;;;;;-0.31;66.65;92891.02;1842659;77;21244;-77
2020/12/09 10:23:30;;;;;;;100.58;37.15;;;;;;;-0.41;66.97;92889.41;1748762;80;21157;-76
2020/12/09 10:25:58;;;;;;;62.58;30.90;;;;;;;-0.44;67.22;92896.75;1818406;78;21182;-78
2020/12/09 10:28:27;;;;;;;65.47;31.30;;;;;;;-0.51;67.37;92889.31;1776696;79;21218;-76
2020/12/09 10:30:55;;;;;;;58.23;28.55;;;;;;;-0.56;67.50;92884.98;1774318;80;21559;-80
2020/12/09 10:33:23;;;;;;;55.25;29.12;;;;;;;-0.58;67.78;92883.77;1780208;79;21482;-80
2020/12/09 10:35:52;;;;;;;60.78;31.15;;;;;;;-0.61;67.86;92877.19;1773997;80;21219;-79
2020/12/09 10:38:20;;;;;;;64.00;31.12;;;;;;;-0.65;68.11;92877.65;1806932;78;21120;-77
2020/12/09 10:40:49;;;;;;;59.60;31.33;;;;;;;-0.66;68.33;92875.33;1822383;78;21063;-74
2020/12/09 10:43:17;;;;;;;59.88;32.33;;;;;;;-0.63;68.41;92867.98;1808090;77;21375;-80
2020/12/09 10:45:47;;;;;;;64.45;33.13;;;;;;;-0.61;68.44;92878.53;1788574;77;21199;-80
2020/12/09 10:48:17;;;;;;;61.40;32.55;;;;;;;-0.61;68.13;92877.75;1795732;78;21167;-77
2020/12/09 10:50:45;;;;;;;60.60;32.85;;;;;;;-0.63;68.44;92873.33;1836307;77;21658;-76
2020/12/09 10:53:13;;;;;;;62.30;32.20;;;;;;;-0.65;68.41;92871.53;1792074;80;21196;-77
2020/12/09 10:55:42;;;;;;;57.62;31.75;;;;;;;-0.66;68.44;92876.10;1718052;79;21183;-77
2020/12/09 10:58:10;;;;;;;52.40;28.35;;;;;;;-0.69;68.71;92871.43;1783203;78;21200;-79
2020/12/09 11:00:38;;;;;;;57.43;28.20;;;;;;;-0.69;68.78;92866.66;1836423;77;21198;-78
2020/12/09 11:03:06;;;;;;;54.10;29.45;;;;;;;-0.68;68.91;92864.97;1806459;79;21202;-78
2020/12/09 11:05:34;;;;;;;51.88;26.85;;;;;;;-0.65;68.97;92872.31;1753029;78;21582;-78
2020/12/09 11:08:03;;;;;;;57.23;31.17;;;;;;;-0.64;68.85;92868.55;1805181;79;21167;-78
2020/12/09 11:10:32;;;;;;;57.62;29.85;;;;;;;-0.64;68.92;92864.54;1766213;78;22322;-74
2020/12/09 11:13:00;;;;;;;54.38;28.87;;;;;;;-0.64;68.92;92863.20;1790257;79;21079;-76
2020/12/09 11:15:29;;;;;;;59.63;30.05;;;;;;;-0.67;68.83;92862.54;1801491;79;21058;-78
2020/12/09 11:17:57;;;;;;;56.77;30.02;;;;;;;-0.72;68.84;92856.64;1777570;79;21179;-78
2020/12/09 11:20:25;;;;;;;59.42;30.37;;;;;;;-0.77;69.16;92856.33;1779998;78;21192;-79
2020/12/09 11:22:53;;;;;;;48.13;25.57;;;;;;;-0.78;69.32;92859.56;1782858;80;21265;-79
2020/12/09 11:25:23;;;;;;;55.50;28.05;;;;;;;-0.80;69.48;92855.66;1800851;77;21231;-78
2020/12/09 11:27:52;;;;;;;60.43;32.67;;;;;;;-0.83;69.59;92857.66;1803676;77;21159;-77
2020/12/09 11:30:20;;;;;;;52.30;28.80;;;;;;;-0.86;69.43;92854.36;1803284;78;21427;-76